Time;durP1;ratioP1;P1;durP2;ratioP2;P2;SDS_P1;SDS_P2;PMS_P1;PMS_P2;Temp;Humidity;BMP_temperature;BMP_pressure;BME280_temperature;BME280_humidity;BME280_pressure;Samples;Min_cycle;Max_cycle;Signal;HPM_P1;HPM_P2
2021/11/20 00:01:15;;;;;;;128.18;41.38;;;4.60;99.90;;;;;;6221345;23;20024;-87
2021/11/20 00:04:05;;;;;;;118.90;39.63;;;4.60;99.90;;;;;;6242839;23;20035;-86
2021/11/20 00:06:58;;;;;;;123.40;41.45;;;4.60;99.90;;;;;;6223086;23;20020;-85
2021/11/20 00:09:47;;;;;;;144.13;42.65;;;4.60;99.90;;;;;;6242027;23;20403;-86
2021/11/20 00:12:34;;;;;;;137.35;42.10;;;4.60;99.90;;;;;;6218379;23;20032;-86
2021/11/20 00:15:29;;;;;;;132.00;42.70;;;4.60;99.90;;;;;;6221306;23;20407;-86
2021/11/20 00:18:20;;;;;;;119.47;39.42;;;4.60;99.90;;;;;;6220126;23;20157;-86
2021/11/20 00:21:16;;;;;;;131.90;41.63;;;4.70;99.90;;;;;;6243321;23;20078;-87
2021/11/20 00:24:13;;;;;;;129.88;38.38;;;4.70;99.90;;;;;;6221226;23;20303;-87
2021/11/20 00:27:02;;;;;;;132.40;40.28;;;4.60;99.90;;;;;;6243680;23;20024;-87
2021/11/20 00:30:01;;;;;;;132.95;42.08;;;4.60;99.90;;;;;;6219739;23;20349;-88
2021/11/20 00:32:57;;;;;;;133.57;39.30;;;4.60;99.90;;;;;;6220530;23;20028;-89
2021/11/20 00:35:45;;;;;;;127.07;40.78;;;4.50;99.90;;;;;;6222567;23;20438;-88
2021/11/20 00:38:34;;;;;;;139.68;40.97;;;4.50;99.90;;;;;;6221826;23;20017;-89
2021/11/20 00:41:32;;;;;;;144.57;44.28;;;4.50;99.90;;;;;;6223413;23;20411;-88
2021/11/20 00:44:20;;;;;;;133.23;42.38;;;4.50;99.90;;;;;;6222044;23;20031;-85
2021/11/20 00:47:18;;;;;;;135.98;41.55;;;4.50;99.90;;;;;;6244484;22;20024;-89
2021/11/20 00:50:14;;;;;;;134.07;40.25;;;4.50;99.90;;;;;;6245716;23;20026;-90
2021/11/20 00:53:01;;;;;;;133.60;40.17;;;4.50;99.90;;;;;;6224633;22;20407;-88
2021/11/20 00:55:49;;;;;;;142.93;41.55;;;4.50;99.90;;;;;;6222661;23;20035;-87
2021/11/20 00:58:40;;;;;;;144.43;43.03;;;4.50;99.90;;;;;;6220947;23;20382;-88
2021/11/20 01:01:35;;;;;;;144.63;43.72;;;4.50;99.90;;;;;;6224265;23;20056;-86
2021/11/20 01:04:25;;;;;;;140.35;40.88;;;4.50;99.90;;;;;;6244267;23;20023;-87
2021/11/20 01:07:12;;;;;;;151.32;42.55;;;4.50;99.90;;;;;;6244220;22;20020;-86
2021/11/20 01:10:10;;;;;;;145.00;42.38;;;4.50;99.90;;;;;;6245042;23;20027;-87
2021/11/20 01:12:59;;;;;;;144.65;42.10;;;4.40;99.90;;;;;;6224470;23;20120;-87
2021/11/20 01:15:57;;;;;;;153.00;43.42;;;4.40;99.90;;;;;;6225660;23;20123;-87
2021/11/20 01:18:48;;;;;;;146.50;42.78;;;4.40;99.90;;;;;;6222532;23;20024;-87
2021/11/20 01:21:55;;;;;;;153.05;43.97;;;4.50;99.90;;;;;;6222209;23;20043;-87
2021/11/20 01:24:46;;;;;;;159.32;45.75;;;4.40;99.90;;;;;;6245793;23;20024;-86
2021/11/20 01:27:34;;;;;;;168.30;44.55;;;4.50;99.90;;;;;;6244122;23;20117;-87
2021/11/20 01:30:21;;;;;;;177.88;46.42;;;4.50;99.90;;;;;;6243837;23;20028;-88
2021/11/20 01:33:11;;;;;;;156.18;44.33;;;4.50;99.90;;;;;;6244110;23;20427;-84
2021/11/20 01:35:58;;;;;;;154.95;43.72;;;4.50;99.90;;;;;;6203093;23;20399;-87
2021/11/20 01:38:49;;;;;;;158.98;44.35;;;4.50;99.90;;;;;;6223493;23;20437;-87
2021/11/20 01:41:38;;;;;;;160.30;41.80;;;4.60;99.90;;;;;;6244369;23;20028;-85
2021/11/20 01:44:43;;;;;;;166.25;44.65;;;4.50;99.90;;;;;;6243574;23;20027;-87
2021/11/20 01:47:44;;;;;;;180.48;46.33;;;4.50;99.90;;;;;;6223948;23;20115;-86
2021/11/20 01:50:43;;;;;;;170.13;45.35;;;4.50;99.90;;;;;;6244583;23;20372;-87
2021/11/20 01:53:44;;;;;;;160.50;43.88;;;4.50;99.90;;;;;;6224400;23;20027;-87
2021/11/20 01:56:51;;;;;;;145.48;40.05;;;4.40;99.90;;;;;;6245507;23;20028;-87
2021/11/20 02:00:01;;;;;;;149.93;41.67;;;4.50;99.90;;;;;;6245030;23;20082;-87
2021/11/20 02:02:52;;;;;;;160.18;41.63;;;4.50;99.90;;;;;;6221698;23;20091;-87
2021/11/20 02:06:24;;;;;;;155.50;41.85;;;4.50;99.90;;;;;;6245297;23;20039;-87
2021/11/20 02:09:27;;;;;;;147.60;40.28;;;4.50;99.90;;;;;;6189882;23;20043;-87
2021/11/20 02:12:23;;;;;;;170.75;41.72;;;4.50;99.90;;;;;;6222632;23;20074;-87
2021/11/20 02:15:18;;;;;;;166.48;41.35;;;4.50;99.90;;;;;;6223709;23;20157;-88
2021/11/20 02:18:05;;;;;;;187.80;44.13;;;4.50;99.90;;;;;;6223128;23;20070;-87
2021/11/20 02:21:21;;;;;;;183.60;43.10;;;4.40;99.90;;;;;;6221143;23;20024;-88
2021/11/20 02:24:08;;;;;;;175.55;43.80;;;4.50;99.90;;;;;;6221393;23;20027;-87
2021/11/20 02:26:55;;;;;;;179.85;42.25;;;4.40;99.90;;;;;;6223700;23;20081;-87
2021/11/20 02:29:46;;;;;;;181.73;43.10;;;4.40;99.90;;;;;;6222550;23;20028;-87
2021/11/20 02:32:35;;;;;;;193.15;42.38;;;4.50;99.90;;;;;;6222703;23;20050;-87
2021/11/20 02:35:29;;;;;;;172.10;40.80;;;4.50;99.90;;;;;;6244919;23;20024;-87
2021/11/20 02:38:40;;;;;;;180.13;39.42;;;4.50;99.90;;;;;;6242821;23;20028;-87
2021/11/20 02:41:30;;;;;;;188.95;39.53;;;4.50;99.90;;;;;;6244873;23;20091;-88
2021/11/20 02:44:20;;;;;;;174.27;38.75;;;4.40;99.90;;;;;;6219784;23;20292;-87
2021/11/20 02:47:20;;;;;;;174.80;40.35;;;4.40;99.90;;;;;;6220510;23;20028;-88
2021/11/20 02:50:11;;;;;;;162.65;38.70;;;4.40;99.90;;;;;;6223781;23;20597;-87
2021/11/20 02:52:58;;;;;;;196.95;38.35;;;4.40;99.90;;;;;;6222560;23;20046;-87
2021/11/20 02:55:52;;;;;;;179.25;38.05;;;4.40;99.90;;;;;;6223421;23;20059;-87
2021/11/20 02:58:42;;;;;;;177.38;38.80;;;4.40;99.90;;;;;;6222807;23;20084;-89
2021/11/20 03:01:35;;;;;;;161.07;37.13;;;4.40;99.90;;;;;;6243411;23;20485;-87
2021/11/20 03:04:23;;;;;;;166.43;36.75;;;4.40;99.90;;;;;;6220550;23;20024;-87
2021/11/20 03:07:14;;;;;;;152.35;37.75;;;4.40;99.90;;;;;;6223268;22;20358;-87
2021/11/20 03:10:04;;;;;;;147.60;39.70;;;4.40;99.90;;;;;;6221975;23;20024;-87
2021/11/20 03:12:56;;;;;;;156.05;40.33;;;4.40;99.90;;;;;;6223547;23;20039;-86
2021/11/20 03:15:44;;;;;;;160.73;41.00;;;4.40;99.90;;;;;;6245557;23;20020;-88
2021/11/20 03:18:31;;;;;;;144.13;38.35;;;4.40;99.90;;;;;;6222754;23;20137;-87
2021/11/20 03:21:21;;;;;;;137.73;35.40;;;4.40;99.90;;;;;;6243022;23;20048;-88
2021/11/20 03:24:12;;;;;;;125.25;34.30;;;4.40;99.90;;;;;;6242920;23;20119;-87
2021/11/20 03:27:01;;;;;;;129.90;36.60;;;4.40;99.90;;;;;;6220434;23;20039;-87
2021/11/20 03:29:49;;;;;;;132.40;35.50;;;4.40;99.90;;;;;;6243637;23;20035;-87
2021/11/20 03:32:39;;;;;;;138.00;35.65;;;4.40;99.90;;;;;;6244349;23;20055;-87
2021/11/20 03:35:27;;;;;;;155.20;35.80;;;4.40;99.90;;;;;;6220605;23;20103;-87
2021/11/20 03:38:15;;;;;;;166.80;35.47;;;4.40;99.90;;;;;;6222445;23;20098;-87
2021/11/20 03:41:03;;;;;;;131.13;32.40;;;4.40;99.90;;;;;;6240533;23;20062;-89
2021/11/20 03:43:59;;;;;;;147.57;34.08;;;4.40;99.90;;;;;;6223193;22;20137;-87
2021/11/20 03:46:47;;;;;;;137.00;31.10;;;4.40;99.90;;;;;;6223148;23;20387;-86
2021/11/20 03:49:34;;;;;;;138.63;32.83;;;4.50;99.90;;;;;;6221595;23;20303;-89
2021/11/20 03:52:27;;;;;;;138.48;32.67;;;4.50;99.90;;;;;;6201704;23;20032;-88
2021/11/20 03:55:22;;;;;;;124.60;31.33;;;4.50;99.90;;;;;;6220350;23;20051;-87
2021/11/20 03:58:11;;;;;;;124.78;29.80;;;4.50;99.90;;;;;;6219608;23;20358;-88
2021/11/20 04:01:06;;;;;;;115.95;29.98;;;4.50;99.90;;;;;;6220628;23;20331;-88
2021/11/20 04:03:54;;;;;;;111.50;28.40;;;4.50;99.90;;;;;;6219490;23;20016;-87
2021/11/20 04:06:45;;;;;;;116.13;30.05;;;4.50;99.90;;;;;;6220097;23;20082;-87
2021/11/20 04:09:32;;;;;;;110.78;32.00;;;4.50;99.90;;;;;;6202227;23;20024;-87
2021/11/20 04:12:20;;;;;;;109.78;28.95;;;4.60;99.90;;;;;;6221614;23;20046;-88
2021/11/20 04:15:10;;;;;;;109.35;29.08;;;4.60;99.90;;;;;;6199918;23;20363;-87
2021/11/20 04:18:01;;;;;;;123.65;30.10;;;4.60;99.90;;;;;;6219698;23;20064;-87
2021/11/20 04:20:50;;;;;;;85.78;22.40;;;4.60;99.90;;;;;;6203297;23;20024;-87
2021/11/20 04:23:41;;;;;;;113.15;29.15;;;4.70;99.90;;;;;;6198270;23;20031;-88
2021/11/20 04:26:31;;;;;;;84.33;21.90;;;4.60;99.90;;;;;;6221028;23;20032;-88
2021/11/20 04:29:21;;;;;;;111.10;28.60;;;4.50;99.90;;;;;;6223171;22;20092;-88
2021/11/20 04:32:09;;;;;;;110.68;28.70;;;4.50;99.90;;;;;;6243143;23;20377;-88
2021/11/20 04:34:57;;;;;;;118.35;29.33;;;4.50;99.90;;;;;;6200233;23;20090;-86
2021/11/20 04:37:46;;;;;;;117.68;29.90;;;4.50;99.90;;;;;;6222023;23;20098;-86
2021/11/20 04:40:37;;;;;;;119.50;29.92;;;4.50;99.90;;;;;;6222420;23;20241;-87
2021/11/20 04:43:24;;;;;;;125.43;32.78;;;4.50;99.90;;;;;;6244378;22;20024;-87
2021/11/20 04:46:14;;;;;;;121.05;30.90;;;4.50;99.90;;;;;;6223356;23;20032;-87
2021/11/20 04:49:02;;;;;;;116.63;30.02;;;4.50;99.90;;;;;;6221414;23;20028;-88
2021/11/20 04:52:02;;;;;;;106.95;28.08;;;4.50;99.90;;;;;;6229998;22;20105;-88
2021/11/20 04:54:50;;;;;;;112.82;29.85;;;4.50;99.90;;;;;;6213005;23;20036;-87
2021/11/20 04:58:51;;;;;;;;;;;;;;;;;;;;;
2021/11/20 05:26:55;;;;;;;108.45;31.55;;;4.60;99.90;;;;;;5875864;24;20025;-85
2021/11/20 05:30:06;;;;;;;99.18;30.60;;;4.60;99.90;;;;;;6023167;23;20029;-86
2021/11/20 05:32:58;;;;;;;109.68;30.80;;;4.60;99.90;;;;;;6191567;23;20035;-87
2021/11/20 05:35:46;;;;;;;70.78;20.80;;;4.60;99.90;;;;;;6222025;23;20146;-84
2021/11/20 05:38:37;;;;;;;102.60;29.08;;;4.60;99.90;;;;;;6223884;23;20319;-90
2021/11/20 05:41:29;;;;;;;100.95;30.48;;;4.50;99.90;;;;;;6243836;23;20020;-87
2021/11/20 05:44:19;;;;;;;69.80;20.52;;;4.50;99.90;;;;;;6242990;23;20396;-87
2021/11/20 05:47:11;;;;;;;91.53;26.77;;;4.50;99.90;;;;;;6222384;23;20028;-88
2021/11/20 05:49:58;;;;;;;60.97;18.98;;;4.60;99.90;;;;;;6222480;23;20434;-87
2021/11/20 05:52:50;;;;;;;87.18;26.58;;;4.60;99.90;;;;;;6201801;23;20311;-88
2021/11/20 05:55:37;;;;;;;76.57;24.13;;;4.60;99.90;;;;;;6221235;23;20019;-87
2021/11/20 05:58:25;;;;;;;80.40;26.42;;;4.60;99.90;;;;;;6221766;23;20028;-87
2021/11/20 06:01:14;;;;;;;59.70;23.17;;;4.60;99.90;;;;;;6224036;23;20568;-87
2021/11/20 06:04:02;;;;;;;57.80;21.92;;;4.60;99.90;;;;;;6244091;23;20031;-88
2021/11/20 06:06:50;;;;;;;58.33;22.70;;;4.60;99.90;;;;;;6246311;22;20089;-85
2021/11/20 06:09:39;;;;;;;50.83;21.25;;;4.60;99.90;;;;;;6223502;23;20031;-85
2021/11/20 06:12:27;;;;;;;52.33;19.95;;;4.60;99.90;;;;;;6222486;23;20109;-84
2021/11/20 06:15:14;;;;;;;54.40;21.70;;;4.60;99.90;;;;;;6242450;23;20032;-85
2021/11/20 06:18:02;;;;;;;54.95;20.45;;;4.60;99.90;;;;;;6223051;23;20035;-85
2021/11/20 06:20:50;;;;;;;57.25;20.17;;;4.60;99.90;;;;;;6222965;23;20056;-85
2021/11/20 06:23:44;;;;;;;51.30;21.08;;;4.70;99.90;;;;;;6223634;23;20020;-85
2021/11/20 06:26:32;;;;;;;56.13;21.90;;;4.70;99.90;;;;;;6223458;22;20031;-85
2021/11/20 06:29:19;;;;;;;56.53;23.02;;;4.70;99.90;;;;;;6222417;23;20056;-85
2021/11/20 06:32:06;;;;;;;54.35;22.90;;;4.70;99.90;;;;;;6224441;22;20036;-85
2021/11/20 06:34:56;;;;;;;64.43;24.20;;;4.60;99.90;;;;;;6222632;23;20086;-84
2021/11/20 06:37:45;;;;;;;55.95;22.85;;;4.60;99.90;;;;;;6224156;23;20089;-84
2021/11/20 06:40:40;;;;;;;67.97;24.25;;;4.70;99.90;;;;;;6245576;22;20408;-85
2021/11/20 06:43:28;;;;;;;65.47;23.63;;;4.70;99.90;;;;;;6222560;23;20404;-85
2021/11/20 06:46:16;;;;;;;73.38;24.58;;;4.60;99.90;;;;;;6222902;22;20162;-85
2021/11/20 06:49:04;;;;;;;67.55;24.85;;;4.70;99.90;;;;;;6223020;23;20039;-86
2021/11/20 06:51:51;;;;;;;70.85;24.13;;;4.70;99.90;;;;;;6223920;23;20079;-87
2021/11/20 06:54:44;;;;;;;69.57;23.75;;;4.70;99.90;;;;;;6204909;23;20024;-86
2021/11/20 07:00:31;;;;;;;66.15;23.75;;;4.70;99.90;;;;;;6224162;23;20024;-86
2021/11/20 07:03:38;;;;;;;67.38;22.38;;;4.80;99.90;;;;;;6243154;23;20039;-85
2021/11/20 07:06:37;;;;;;;68.82;22.15;;;4.70;99.90;;;;;;6202700;23;20024;-83
2021/11/20 07:09:25;;;;;;;61.85;22.20;;;4.70;99.90;;;;;;6221313;23;20392;-85
2021/11/20 07:12:12;;;;;;;64.47;21.17;;;4.70;99.90;;;;;;6221218;23;20371;-85
2021/11/20 07:15:00;;;;;;;70.70;24.10;;;4.70;99.90;;;;;;6243231;23;20323;-85
2021/11/20 07:17:50;;;;;;;58.97;21.33;;;4.70;99.90;;;;;;6222161;23;20028;-85
2021/11/20 07:20:39;;;;;;;62.92;21.10;;;4.70;99.90;;;;;;6223870;23;20036;-84
2021/11/20 07:23:28;;;;;;;62.03;21.00;;;4.70;99.90;;;;;;6245156;22;20406;-85
2021/11/20 07:26:16;;;;;;;58.83;20.92;;;4.70;99.90;;;;;;6221961;23;20035;-86
2021/11/20 07:29:04;;;;;;;55.22;19.50;;;4.80;99.90;;;;;;6221908;23;20024;-86
2021/11/20 07:32:03;;;;;;;51.05;18.95;;;4.80;99.90;;;;;;6245152;22;20102;-85
2021/11/20 07:34:53;;;;;;;51.63;18.92;;;4.80;99.90;;;;;;6222370;23;20034;-85
2021/11/20 07:37:40;;;;;;;46.17;17.38;;;4.90;99.90;;;;;;6221802;23;20036;-86
2021/11/20 07:40:30;;;;;;;50.70;19.08;;;4.90;99.90;;;;;;6220695;23;20020;-86
2021/11/20 07:43:20;;;;;;;47.60;18.55;;;4.90;99.90;;;;;;6242315;23;20092;-85
2021/11/20 07:46:12;;;;;;;51.90;19.50;;;4.90;99.90;;;;;;6222841;23;20052;-86
2021/11/20 07:49:00;;;;;;;51.33;20.03;;;5.00;99.90;;;;;;6241614;23;20038;-84
2021/11/20 07:51:49;;;;;;;49.05;18.90;;;5.00;99.90;;;;;;6221295;23;20243;-85
2021/11/20 07:54:38;;;;;;;46.92;18.27;;;5.10;99.90;;;;;;6221886;23;20035;-85
2021/11/20 07:57:26;;;;;;;42.72;16.65;;;5.10;99.90;;;;;;6243947;22;20404;-84
2021/11/20 08:00:20;;;;;;;45.05;18.10;;;5.10;99.90;;;;;;6242774;23;20654;-84
2021/11/20 08:03:09;;;;;;;42.28;17.88;;;5.10;99.90;;;;;;6218614;23;20145;-85
2021/11/20 08:05:59;;;;;;;43.03;17.30;;;5.10;99.90;;;;;;6221680;23;20479;-84
2021/11/20 08:08:48;;;;;;;39.10;16.38;;;5.20;99.90;;;;;;6221383;23;20478;-84
2021/11/20 08:11:38;;;;;;;38.75;17.23;;;5.20;99.90;;;;;;6244091;23;20028;-84
2021/11/20 08:14:25;;;;;;;39.17;16.55;;;5.20;99.90;;;;;;6222258;23;20130;-84
2021/11/20 08:17:17;;;;;;;33.78;15.63;;;5.20;99.90;;;;;;6221345;23;20024;-84
2021/11/20 08:20:07;;;;;;;35.40;15.35;;;5.30;99.90;;;;;;6242472;23;20042;-84
2021/11/20 08:22:54;;;;;;;29.83;14.25;;;5.20;99.90;;;;;;6222624;22;20074;-84
2021/11/20 08:25:47;;;;;;;32.17;15.43;;;5.20;99.90;;;;;;6221552;23;20032;-84
2021/11/20 08:28:36;;;;;;;;;;;5.30;99.90;;;;;;6219351;23;20032;-85
2021/11/20 08:31:28;;;;;;;33.10;14.57;;;5.40;99.90;;;;;;6221266;23;20191;-84
2021/11/20 08:34:17;;;;;;;27.98;14.07;;;5.30;99.90;;;;;;6197460;23;20039;-85
2021/11/20 08:37:06;;;;;;;30.73;13.88;;;5.40;99.90;;;;;;6241935;23;20063;-84
2021/11/20 08:39:56;;;;;;;23.83;11.77;;;5.40;99.90;;;;;;6219249;23;20060;-85
2021/11/20 08:42:43;;;;;;;25.95;12.70;;;5.50;99.90;;;;;;6200054;23;20020;-86
2021/11/20 08:45:34;;;;;;;18.27;9.93;;;5.50;99.90;;;;;;6221208;23;20127;-85
2021/11/20 08:48:24;;;;;;;21.48;11.10;;;5.60;99.90;;;;;;6221087;23;20395;-86
2021/11/20 08:51:26;;;;;;;20.48;10.45;;;5.70;99.90;;;;;;6222528;23;20078;-88
2021/11/20 08:54:13;;;;;;;12.75;6.85;;;5.70;99.90;;;;;;6243549;23;20419;-87
2021/11/20 08:57:01;;;;;;;16.25;9.50;;;5.80;99.90;;;;;;6249804;23;20033;-86
2021/11/20 08:59:49;;;;;;;14.50;8.50;;;5.90;99.90;;;;;;6231488;23;20415;-86
2021/11/20 09:02:47;;;;;;;15.70;9.05;;;5.90;99.90;;;;;;6235402;23;20032;-86
2021/11/20 09:06:03;;;;;;;14.02;8.50;;;6.00;99.90;;;;;;6263890;23;20028;-86
2021/11/20 09:09:06;;;;;;;19.67;10.35;;;6.00;99.90;;;;;;6268572;22;20028;-85
2021/11/20 09:11:59;;;;;;;8.20;5.55;;;6.00;99.90;;;;;;6271737;22;20011;-84
2021/11/20 09:14:57;;;;;;;9.30;5.18;;;5.90;99.90;;;;;;6249502;22;20011;-88
2021/11/20 09:17:47;;;;;;;5.47;4.03;;;6.00;99.90;;;;;;6238493;23;20020;-88
2021/11/20 09:20:37;;;;;;;5.10;3.70;;;5.90;99.90;;;;;;6232879;23;20024;-88
2021/11/20 09:23:27;;;;;;;4.30;3.17;;;5.90;99.90;;;;;;6255897;23;20028;-87
2021/11/20 09:26:33;;;;;;;5.50;3.55;;;5.80;99.90;;;;;;6257646;23;20031;-86
2021/11/20 09:29:30;;;;;;;5.55;4.13;;;5.70;99.90;;;;;;6256374;23;20028;-86
2021/11/20 09:32:20;;;;;;;7.47;4.78;;;5.80;99.90;;;;;;6234257;23;20024;-86
2021/11/20 09:35:08;;;;;;;8.00;4.95;;;5.90;99.90;;;;;;6259709;23;20024;-85
2021/11/20 09:37:56;;;;;;;6.75;4.50;;;5.90;99.90;;;;;;6263933;23;20052;-86
2021/11/20 09:40:48;;;;;;;7.95;5.13;;;5.90;99.90;;;;;;6237523;23;20024;-86
2021/11/20 09:43:42;;;;;;;10.52;6.30;;;5.80;99.90;;;;;;6231444;23;20036;-85
2021/11/20 09:46:37;;;;;;;10.45;6.70;;;5.80;99.90;;;;;;6231382;23;20096;-85
2021/11/20 09:49:35;;;;;;;9.77;6.13;;;5.90;99.90;;;;;;6251437;23;20024;-87
2021/11/20 09:52:22;;;;;;;11.60;6.72;;;5.80;99.90;;;;;;6252470;23;20123;-86
2021/11/20 09:55:16;;;;;;;12.32;6.78;;;5.90;99.90;;;;;;6227580;23;20028;-86
2021/11/20 09:58:21;;;;;;;11.93;6.70;;;5.80;99.90;;;;;;6249710;22;20032;-87
2021/11/20 10:01:29;;;;;;;11.48;6.18;;;6.00;99.90;;;;;;6224854;23;20032;-86
2021/11/20 10:04:47;;;;;;;11.32;7.30;;;6.10;99.90;;;;;;6223695;23;20024;-89
2021/11/20 10:07:45;;;;;;;11.05;7.18;;;6.00;99.90;;;;;;6204115;23;20170;-88
2021/11/20 10:10:37;;;;;;;13.88;7.85;;;6.20;99.90;;;;;;6247544;23;20031;-88
2021/11/20 10:13:30;;;;;;;13.57;8.20;;;6.00;99.90;;;;;;6249247;23;20037;-85
2021/11/20 10:16:24;;;;;;;15.25;8.95;;;5.80;99.90;;;;;;6228801;23;20028;-86
2021/11/20 10:19:17;;;;;;;16.20;9.32;;;5.70;99.90;;;;;;6245920;23;20028;-86
2021/11/20 10:22:22;;;;;;;14.52;8.85;;;5.70;99.90;;;;;;6227301;23;20028;-87
2021/11/20 10:25:45;;;;;;;17.55;10.15;;;5.70;99.90;;;;;;6225194;23;20100;-88
2021/11/20 10:29:26;;;;;;;15.53;10.63;;;5.70;99.90;;;;;;6225585;23;20323;-88
2021/11/20 10:32:33;;;;;;;22.35;10.55;;;5.70;99.90;;;;;;6103497;23;20045;-87
2021/11/20 10:35:32;;;;;;;18.67;10.15;;;5.70;99.90;;;;;;6227257;22;20035;-88
2021/11/20 10:38:19;;;;;;;17.20;9.38;;;5.70;99.90;;;;;;6246045;23;20032;-88
2021/11/20 10:41:18;;;;;;;14.57;9.52;;;5.80;99.90;;;;;;6225271;23;20089;-87
2021/11/20 10:44:13;;;;;;;17.70;9.85;;;5.90;99.90;;;;;;6245950;23;20093;-88
2021/11/20 10:47:10;;;;;;;16.48;10.43;;;5.90;99.90;;;;;;6226618;23;20101;-90
2021/11/20 10:50:43;;;;;;;15.70;9.73;;;5.80;99.90;;;;;;6248428;22;20415;-87
2021/11/20 10:53:40;;;;;;;14.95;9.93;;;5.70;99.90;;;;;;6199013;23;20027;-88
2021/11/20 10:56:49;;;;;;;16.10;10.13;;;5.70;99.90;;;;;;6234846;23;20043;-86
2021/11/20 10:59:49;;;;;;;16.40;10.23;;;5.80;99.90;;;;;;6236105;23;20100;-86
2021/11/20 11:02:47;;;;;;;17.70;10.35;;;5.90;99.90;;;;;;6236933;23;20035;-90
2021/11/20 11:05:46;;;;;;;14.98;9.73;;;5.90;99.90;;;;;;6257742;23;20028;-87
2021/11/20 11:08:44;;;;;;;14.93;9.20;;;5.90;99.90;;;;;;6233603;23;20449;-88
2021/11/20 11:11:50;;;;;;;14.68;9.15;;;5.90;99.90;;;;;;6254458;23;20098;-85
2021/11/20 11:14:43;;;;;;;17.83;9.05;;;6.00;99.90;;;;;;6231806;23;20024;-86
2021/11/20 11:17:30;;;;;;;15.02;9.02;;;6.00;99.90;;;;;;6231515;23;20024;-86
2021/11/20 11:20:51;;;;;;;14.45;9.18;;;6.00;99.90;;;;;;6228687;23;20097;-86
2021/11/20 11:23:41;;;;;;;15.95;9.88;;;6.00;99.90;;;;;;6251373;23;20080;-87
2021/11/20 11:26:33;;;;;;;15.75;9.25;;;6.10;99.90;;;;;;6230730;23;20174;-89
2021/11/20 11:29:41;;;;;;;14.43;9.10;;;6.10;99.90;;;;;;6234706;23;20067;-89
2021/11/20 11:32:32;;;;;;;15.40;9.75;;;6.10;99.90;;;;;;6236277;23;20267;-87
2021/11/20 11:35:28;;;;;;;16.33;8.85;;;6.20;99.90;;;;;;6216534;23;20028;-88
2021/11/20 11:38:45;;;;;;;14.65;9.52;;;6.30;99.90;;;;;;6259043;23;20024;-85
2021/11/20 11:41:40;;;;;;;14.38;9.27;;;6.20;99.90;;;;;;6234021;23;20028;-85
2021/11/20 11:45:07;;;;;;;13.05;8.98;;;6.20;99.90;;;;;;6258029;23;20103;-88
2021/11/20 11:48:11;;;;;;;13.93;9.20;;;6.20;99.90;;;;;;6250947;23;20096;-88
2021/11/20 11:51:15;;;;;;;14.57;9.50;;;6.20;99.90;;;;;;6236505;23;20024;-87
2021/11/20 11:54:11;;;;;;;14.85;10.60;;;6.20;99.90;;;;;;6257907;23;20078;-86
2021/11/20 11:56:58;;;;;;;15.60;10.80;;;6.20;99.90;;;;;;6235148;23;20028;-86
2021/11/20 12:00:05;;;;;;;15.40;9.88;;;6.20;99.90;;;;;;6233773;23;20036;-86
2021/11/20 12:02:55;;;;;;;16.10;10.65;;;6.20;99.90;;;;;;6257730;23;20020;-85
2021/11/20 12:06:01;;;;;;;15.93;10.52;;;6.20;99.90;;;;;;6240125;23;20344;-86
2021/11/20 12:08:50;;;;;;;13.43;9.07;;;6.20;99.90;;;;;;6236847;23;20032;-85
2021/11/20 12:11:46;;;;;;;18.27;9.32;;;6.20;99.90;;;;;;6233402;23;20035;-86
2021/11/20 12:14:39;;;;;;;12.82;9.30;;;6.20;99.90;;;;;;6234326;23;20028;-88
2021/11/20 12:17:46;;;;;;;15.15;9.70;;;6.00;99.90;;;;;;6236088;23;20036;-87
2021/11/20 12:21:01;;;;;;;14.65;9.38;;;5.90;99.90;;;;;;6260212;22;20082;-88
2021/11/20 12:24:22;;;;;;;15.98;10.10;;;5.90;99.90;;;;;;6235921;23;20103;-88
2021/11/20 12:27:48;;;;;;;16.83;9.95;;;5.90;99.90;;;;;;6262250;23;20019;-86
2021/11/20 12:31:19;;;;;;;13.55;9.02;;;6.00;99.90;;;;;;6132155;23;20025;-87
2021/11/20 12:34:24;;;;;;;11.77;8.98;;;6.00;99.90;;;;;;6230534;23;20040;-88
2021/11/20 12:37:47;;;;;;;14.02;9.40;;;6.00;99.90;;;;;;6234914;23;20082;-87
2021/11/20 12:41:01;;;;;;;13.98;10.20;;;6.00;99.90;;;;;;6223092;23;20085;-87
2021/11/20 12:44:07;;;;;;;15.77;10.27;;;6.00;99.90;;;;;;6234941;23;20089;-89
2021/11/20 12:47:13;;;;;;;14.75;9.80;;;5.90;99.90;;;;;;6258860;23;20028;-89
2021/11/20 12:50:25;;;;;;;13.27;9.57;;;6.00;99.90;;;;;;6235511;23;20074;-88
2021/11/20 12:53:17;;;;;;;13.90;9.88;;;6.00;99.90;;;;;;6258954;23;20028;-87
2021/11/20 12:56:23;;;;;;;18.02;9.90;;;5.90;99.90;;;;;;6233672;23;20032;-87
2021/11/20 12:59:16;;;;;;;15.30;10.55;;;5.90;99.90;;;;;;6259244;22;20032;-87
2021/11/20 13:02:08;;;;;;;22.20;10.95;;;5.80;99.90;;;;;;6257206;23;20033;-88
2021/11/20 13:04:56;;;;;;;17.48;10.68;;;5.80;99.90;;;;;;6248554;23;20039;-89
2021/11/20 13:07:50;;;;;;;16.00;10.88;;;5.80;99.90;;;;;;6230559;23;20089;-88
2021/11/20 13:10:54;;;;;;;16.98;10.50;;;5.70;99.90;;;;;;6225000;23;20027;-88
2021/11/20 13:13:55;;;;;;;15.68;10.57;;;5.70;99.90;;;;;;6247047;22;20110;-88
2021/11/20 13:16:48;;;;;;;12.10;9.15;;;5.80;99.90;;;;;;6222155;23;20117;-87
2021/11/20 13:20:19;;;;;;;14.48;9.55;;;5.80;99.90;;;;;;6244037;23;20103;-86
2021/11/20 13:23:08;;;;;;;12.48;8.65;;;5.90;99.90;;;;;;6224536;23;20020;-86
2021/11/20 13:26:03;;;;;;;14.48;9.45;;;5.90;99.90;;;;;;6244113;23;20031;-87
2021/11/20 13:28:54;;;;;;;14.77;9.35;;;5.90;99.90;;;;;;6223231;23;20027;-86
2021/11/20 13:31:41;;;;;;;12.95;9.38;;;5.80;99.90;;;;;;6246263;23;20078;-88
2021/11/20 13:34:29;;;;;;;14.20;10.35;;;5.80;99.90;;;;;;6224590;23;20107;-87
2021/11/20 13:37:16;;;;;;;14.25;9.52;;;5.70;99.90;;;;;;6249224;23;20020;-86
2021/11/20 13:40:04;;;;;;;16.40;9.60;;;5.80;99.90;;;;;;6244793;23;20094;-86
2021/11/20 13:43:19;;;;;;;11.65;8.60;;;5.80;99.90;;;;;;6245909;23;20292;-85
2021/11/20 13:46:16;;;;;;;12.13;9.57;;;5.90;99.90;;;;;;6223795;23;20024;-86
2021/11/20 13:49:06;;;;;;;13.00;9.20;;;5.90;99.90;;;;;;6228189;23;20036;-88
2021/11/20 13:51:55;;;;;;;14.27;10.18;;;5.90;99.90;;;;;;6214666;23;20031;-87
2021/11/20 13:55:04;;;;;;;13.02;9.40;;;5.70;99.90;;;;;;6258526;23;20024;-89
2021/11/20 13:57:52;;;;;;;13.77;9.73;;;5.60;99.90;;;;;;6236628;23;20040;-87
2021/11/20 14:00:47;;;;;;;13.38;9.57;;;5.60;99.90;;;;;;6256380;23;20024;-87
2021/11/20 14:03:37;;;;;;;14.38;10.82;;;5.60;99.90;;;;;;6234432;23;20027;-88
2021/11/20 14:06:30;;;;;;;13.85;10.93;;;5.50;99.90;;;;;;6235222;23;20050;-87
2021/11/20 14:09:19;;;;;;;16.02;11.32;;;5.50;99.90;;;;;;6235223;23;20040;-89
2021/11/20 14:12:13;;;;;;;16.30;11.35;;;5.50;99.90;;;;;;6234801;23;20099;-88
2021/11/20 14:15:03;;;;;;;16.65;12.25;;;5.60;99.90;;;;;;6234865;23;20039;-89
2021/11/20 14:18:02;;;;;;;13.52;10.75;;;5.60;99.90;;;;;;6256953;23;20035;-88
2021/11/20 14:20:53;;;;;;;17.65;11.75;;;5.60;99.90;;;;;;6233865;23;20024;-90
2021/11/20 14:23:44;;;;;;;15.38;10.70;;;5.60;99.90;;;;;;6235325;23;20078;-88
2021/11/20 14:26:57;;;;;;;12.93;9.57;;;5.60;99.90;;;;;;6235838;23;20423;-89
2021/11/20 14:29:53;;;;;;;16.00;10.32;;;5.70;99.90;;;;;;6234261;23;20024;-88
2021/11/20 14:32:40;;;;;;;16.90;9.98;;;5.70;99.90;;;;;;6257516;22;20289;-87
2021/11/20 14:35:29;;;;;;;12.77;9.15;;;5.70;99.90;;;;;;6232763;23;20028;-89
2021/11/20 14:38:17;;;;;;;12.75;9.30;;;5.70;99.90;;;;;;6212805;23;20094;-89
2021/11/20 14:41:09;;;;;;;17.95;9.30;;;5.70;99.90;;;;;;6257612;22;20028;-87
2021/11/20 14:44:01;;;;;;;7.77;6.73;;;5.60;99.90;;;;;;6243692;23;20050;-88
2021/11/20 14:47:06;;;;;;;14.40;9.32;;;5.70;99.90;;;;;;6239485;23;20265;-88
2021/11/20 14:49:55;;;;;;;13.23;9.50;;;5.70;99.90;;;;;;6234227;23;20089;-87
2021/11/20 14:52:44;;;;;;;14.60;10.13;;;5.60;99.90;;;;;;6256807;23;20020;-90
2021/11/20 14:55:35;;;;;;;13.57;10.23;;;5.70;99.90;;;;;;6236473;23;20494;-88
2021/11/20 14:58:24;;;;;;;14.68;10.40;;;5.70;99.90;;;;;;6237704;23;20028;-88
2021/11/20 15:01:11;;;;;;;13.27;10.02;;;5.70;99.90;;;;;;6207245;23;20110;-87
2021/11/20 15:04:03;;;;;;;14.00;11.13;;;5.60;99.90;;;;;;6237763;23;20028;-89
2021/11/20 15:06:51;;;;;;;15.52;11.23;;;5.60;99.90;;;;;;6259642;23;20031;-89
2021/11/20 15:09:43;;;;;;;16.67;11.75;;;5.60;99.90;;;;;;6235215;23;20222;-87
2021/11/20 15:12:50;;;;;;;17.45;12.25;;;5.60;99.90;;;;;;6241577;23;20031;-89
2021/11/20 15:15:38;;;;;;;15.85;11.57;;;5.60;99.90;;;;;;6209826;23;20083;-87
2021/11/20 15:18:26;;;;;;;18.02;11.90;;;5.50;99.90;;;;;;6225981;22;20020;-89
2021/11/20 15:21:13;;;;;;;23.23;13.30;;;5.50;99.90;;;;;;6227707;22;20123;-86
2021/11/20 15:24:01;;;;;;;19.23;13.15;;;5.50;99.90;;;;;;6201186;23;20023;-88
2021/11/20 15:26:55;;;;;;;19.42;14.20;;;5.40;99.90;;;;;;6184597;23;20123;-90